createdAt,value
2023-01-15T00:01:05.109Z,99075.42
2023-01-15T00:04:23.799Z,99079.34
2023-01-15T00:07:25.940Z,99077.18
2023-01-15T00:10:27.584Z,99067.89
2023-01-15T00:13:29.305Z,99065.27
2023-01-15T00:16:30.861Z,99069.67
2023-01-15T00:19:32.545Z,99068.37
2023-01-15T00:22:34.138Z,99056.84
2023-01-15T00:25:35.805Z,99051.61
2023-01-15T00:28:37.372Z,99050.89
2023-01-15T00:31:39.065Z,99048.67
2023-01-15T00:34:41.867Z,99046.85
2023-01-15T00:37:43.870Z,99046.27
2023-01-15T00:40:45.394Z,99048.75
2023-01-15T00:43:47.010Z,99051.39
2023-01-15T00:46:48.687Z,99046.13
2023-01-15T00:49:50.478Z,99045.25
2023-01-15T00:52:51.999Z,99046.16
2023-01-15T00:55:53.652Z,99040.77
2023-01-15T00:58:55.663Z,99031.86
2023-01-15T01:01:57.415Z,99023.05
2023-01-15T01:04:59.312Z,99015.00
2023-01-15T01:08:01.370Z,99006.27
2023-01-15T01:11:06.902Z,98995.41
2023-01-15T01:14:10.271Z,98991.77
2023-01-15T01:17:11.902Z,98983.57
2023-01-15T01:20:15.637Z,98975.02
2023-01-15T01:23:17.420Z,98973.50
2023-01-15T01:26:19.168Z,98971.30
2023-01-15T01:29:21.864Z,98969.67
2023-01-15T01:32:23.759Z,98954.33
2023-01-15T01:35:25.475Z,98950.86
2023-01-15T01:38:27.223Z,98945.73
2023-01-15T01:41:29.955Z,98938.81
2023-01-15T01:44:34.597Z,98929.18
2023-01-15T01:47:36.197Z,98923.44
2023-01-15T01:50:39.737Z,98915.60
2023-01-15T01:53:41.368Z,98911.30
2023-01-15T01:56:42.960Z,98907.08
2023-01-15T01:59:45.317Z,98904.93
2023-01-15T02:02:48.345Z,98900.33
2023-01-15T02:05:53.306Z,98895.46
2023-01-15T02:08:54.935Z,98889.77
2023-01-15T02:11:57.772Z,98884.07
2023-01-15T02:15:08.122Z,98881.00
2023-01-15T02:18:34.034Z,98875.95
2023-01-15T02:22:29.786Z,98876.48
2023-01-15T02:25:47.109Z,98877.96
2023-01-15T02:28:50.256Z,98871.52
2023-01-15T02:31:52.396Z,98862.83
2023-01-15T02:34:56.864Z,98861.73
2023-01-15T02:38:01.627Z,98861.38
2023-01-15T02:41:06.170Z,98863.51
2023-01-15T02:44:09.166Z,98869.15
2023-01-15T02:47:11.177Z,98867.10
2023-01-15T02:50:16.854Z,98863.14
2023-01-15T02:53:21.657Z,98864.77
2023-01-15T02:56:26.049Z,98863.15
2023-01-15T02:59:34.042Z,98855.02
2023-01-15T03:02:44.985Z,98851.77
2023-01-15T03:06:04.325Z,98848.36
2023-01-15T03:09:07.030Z,98843.44
2023-01-15T03:12:17.569Z,98839.02
2023-01-15T03:15:20.732Z,98842.49
2023-01-15T03:18:22.563Z,98835.98
2023-01-15T03:21:37.186Z,98833.70
2023-01-15T03:24:50.065Z,98833.63
2023-01-15T03:27:54.686Z,98830.48
2023-01-15T03:30:56.402Z,98830.77
2023-01-15T03:34:01.239Z,98829.30
2023-01-15T03:37:02.693Z,98827.67
2023-01-15T03:40:04.732Z,98833.38
2023-01-15T03:43:09.731Z,98838.48
2023-01-15T03:46:39.810Z,98832.80
2023-01-15T03:49:56.648Z,98828.13
2023-01-15T03:53:15.927Z,98826.66
2023-01-15T03:56:20.562Z,98819.11
2023-01-15T03:59:28.356Z,98824.92
2023-01-15T04:02:30.515Z,98819.98
2023-01-15T04:05:32.711Z,98809.65
2023-01-15T04:08:39.457Z,98804.09
2023-01-15T04:11:40.956Z,98807.48
2023-01-15T04:14:42.548Z,98807.07
2023-01-15T04:17:44.224Z,98800.42
2023-01-15T04:20:46.013Z,98788.52
2023-01-15T04:23:47.953Z,98780.94
2023-01-15T04:26:49.690Z,98775.04
2023-01-15T04:29:51.275Z,98772.15
2023-01-15T04:32:52.897Z,98767.79
2023-01-15T04:35:54.359Z,98757.19
2023-01-15T04:38:55.903Z,98756.38
2023-01-15T04:41:57.467Z,98747.90
2023-01-15T04:44:59.254Z,98739.59
2023-01-15T04:48:00.840Z,98729.47
2023-01-15T04:51:03.119Z,98727.17
2023-01-15T04:54:05.298Z,98725.56
2023-01-15T04:57:07.459Z,98725.02
2023-01-15T05:00:09.676Z,98725.23
2023-01-15T05:03:11.524Z,98716.98
2023-01-15T05:06:13.236Z,98712.86
2023-01-15T05:09:14.901Z,98701.71
2023-01-15T05:12:16.405Z,98701.98
2023-01-15T05:15:18.112Z,98699.84
2023-01-15T05:18:19.576Z,98700.09
2023-01-15T05:21:24.467Z,98699.76
2023-01-15T05:24:26.038Z,98699.54
2023-01-15T05:27:27.608Z,98694.67
2023-01-15T05:30:29.288Z,98693.64
2023-01-15T05:33:30.914Z,98682.50
2023-01-15T05:36:32.505Z,98683.71
2023-01-15T05:39:34.333Z,98672.84
2023-01-15T05:42:35.882Z,98673.48
2023-01-15T05:45:38.159Z,98674.67
2023-01-15T05:48:39.714Z,98669.95
2023-01-15T05:51:41.675Z,98656.66
2023-01-15T05:54:43.255Z,98658.06
2023-01-15T05:57:44.798Z,98653.89
2023-01-15T06:00:46.395Z,98662.48
2023-01-15T06:03:47.992Z,98658.80
2023-01-15T06:06:50.098Z,98656.14
2023-01-15T06:09:51.799Z,98653.58
2023-01-15T06:12:53.267Z,98645.91
2023-01-15T06:15:54.900Z,98642.27
2023-01-15T06:18:59.971Z,98640.31
2023-01-15T06:22:01.616Z,98640.39
2023-01-15T06:25:03.501Z,98638.11
2023-01-15T06:28:06.574Z,98629.40
2023-01-15T06:31:10.603Z,98629.77
2023-01-15T06:34:12.218Z,98629.34
2023-01-15T06:37:13.888Z,98632.48
2023-01-15T06:40:15.668Z,98632.55
2023-01-15T06:43:17.323Z,98633.56
2023-01-15T06:46:18.856Z,98631.39
2023-01-15T06:49:20.488Z,98625.90
2023-01-15T06:52:22.777Z,98619.73
2023-01-15T06:55:24.447Z,98621.46
2023-01-15T06:58:26.123Z,98631.10
2023-01-15T07:01:27.668Z,98637.14
2023-01-15T07:04:29.531Z,98641.17
2023-01-15T07:07:31.265Z,98641.11
2023-01-15T07:10:35.918Z,98643.77
2023-01-15T07:13:37.467Z,98643.79
2023-01-15T07:16:39.191Z,98630.91
2023-01-15T07:19:40.900Z,98627.13
2023-01-15T07:22:42.604Z,98628.17
2023-01-15T07:25:44.226Z,98625.23
2023-01-15T07:28:45.754Z,98624.13
2023-01-15T07:31:47.576Z,98624.55
2023-01-15T07:34:49.079Z,98620.03
2023-01-15T07:37:51.981Z,98619.27
2023-01-15T07:40:56.574Z,98620.27
2023-01-15T07:43:58.354Z,98614.31
2023-01-15T07:47:00.028Z,98617.65
2023-01-15T07:50:02.357Z,98617.50
2023-01-15T07:53:04.085Z,98618.69
2023-01-15T07:56:05.925Z,98615.48
2023-01-15T07:59:07.496Z,98614.73
2023-01-15T08:02:09.215Z,98614.84
2023-01-15T08:05:11.012Z,98624.12
2023-01-15T08:08:16.780Z,98624.72
2023-01-15T08:11:18.353Z,98620.69
2023-01-15T08:14:20.196Z,98618.54
2023-01-15T08:17:21.865Z,98625.17
2023-01-15T08:20:24.657Z,98617.39
2023-01-15T08:23:26.235Z,98620.35
2023-01-15T08:26:27.823Z,98614.95
2023-01-15T08:29:29.684Z,98614.99
2023-01-15T08:32:31.688Z,98606.59
2023-01-15T08:35:33.264Z,98605.02
2023-01-15T08:38:35.277Z,98606.81
2023-01-15T08:41:36.818Z,98599.30
2023-01-15T08:44:38.296Z,98601.31
2023-01-15T08:47:39.911Z,98590.00
2023-01-15T08:50:41.384Z,98599.48
2023-01-15T08:53:43.178Z,98601.41
2023-01-15T08:56:45.001Z,98601.58
2023-01-15T08:59:47.647Z,98601.52
2023-01-15T09:02:50.359Z,98598.76
2023-01-15T09:05:52.139Z,98589.65
2023-01-15T09:08:53.863Z,98583.30
2023-01-15T09:11:55.437Z,98580.50
2023-01-15T09:15:01.570Z,98576.67
2023-01-15T09:18:23.581Z,98572.87
2023-01-15T09:21:25.247Z,98572.11
2023-01-15T09:24:26.984Z,98574.25
2023-01-15T09:27:29.191Z,98562.30
2023-01-15T09:30:31.024Z,98548.75
2023-01-15T09:33:32.789Z,98547.73
2023-01-15T09:36:35.568Z,98546.30
2023-01-15T09:39:38.400Z,98537.75
2023-01-15T09:42:51.731Z,98534.48
2023-01-15T09:46:05.247Z,98530.63
2023-01-15T09:49:23.587Z,98523.07
2023-01-15T09:52:44.009Z,98526.84
2023-01-15T09:55:47.812Z,98524.36
2023-01-15T09:58:50.011Z,98525.10
2023-01-15T10:01:52.652Z,98523.97
2023-01-15T10:05:04.766Z,98522.61
2023-01-15T10:08:19.736Z,98516.19
2023-01-15T10:11:50.926Z,98518.55
2023-01-15T10:15:15.170Z,98514.33
2023-01-15T10:18:20.240Z,98517.16
2023-01-15T10:21:43.575Z,98517.13
2023-01-15T10:24:53.678Z,98518.81
2023-01-15T10:27:57.962Z,98508.71
2023-01-15T10:31:09.325Z,98504.41
2023-01-15T10:34:41.284Z,98503.47
2023-01-15T10:38:09.284Z,98509.67
2023-01-15T10:41:19.669Z,98519.20
2023-01-15T10:44:39.235Z,98505.73
2023-01-15T10:47:42.866Z,98510.86
2023-01-15T10:50:44.820Z,98511.13
2023-01-15T10:53:51.991Z,98505.60
2023-01-15T10:56:57.914Z,98504.39
2023-01-15T11:00:01.144Z,98502.39
2023-01-15T11:03:05.896Z,98502.42
2023-01-15T11:06:21.965Z,98497.91
2023-01-15T11:09:25.443Z,98491.54
2023-01-15T11:12:28.867Z,98489.65
2023-01-15T11:15:30.608Z,98490.42
2023-01-15T11:18:36.691Z,98490.74
2023-01-15T11:21:41.617Z,98482.33
2023-01-15T11:24:58.358Z,98473.54
2023-01-15T11:28:03.089Z,98471.67
2023-01-15T11:31:04.907Z,98466.63
2023-01-15T11:34:21.820Z,98461.85
2023-01-15T11:37:24.273Z,98456.27
2023-01-15T11:40:25.973Z,98455.77
2023-01-15T11:43:28.735Z,98452.83
2023-01-15T11:46:32.392Z,98454.89
2023-01-15T11:49:34.020Z,98451.15
2023-01-15T11:52:38.064Z,98451.99
2023-01-15T11:55:39.852Z,98452.48
2023-01-15T11:58:46.718Z,98453.88
2023-01-15T12:02:01.150Z,98455.96
2023-01-15T12:05:03.792Z,98454.04
2023-01-15T12:08:28.622Z,98448.90
2023-01-15T12:11:40.109Z,98451.86
2023-01-15T12:15:18.767Z,98450.70
2023-01-15T12:18:45.519Z,98444.33
2023-01-15T12:22:07.189Z,98436.05
2023-01-15T12:25:11.815Z,98432.23
2023-01-15T12:28:22.785Z,98426.55
2023-01-15T12:31:37.884Z,98424.08
2023-01-15T12:34:47.024Z,98421.61
2023-01-15T12:37:53.887Z,98419.55
2023-01-15T12:40:59.936Z,98415.83
2023-01-15T12:44:01.650Z,98410.15
2023-01-15T12:47:07.636Z,98411.80
2023-01-15T12:50:48.290Z,98405.63
2023-01-15T12:53:53.215Z,98409.86
2023-01-15T12:57:24.269Z,98404.23
2023-01-15T13:00:31.089Z,98395.27
2023-01-15T13:03:48.470Z,98395.60
2023-01-15T13:06:58.414Z,98397.23
2023-01-15T13:10:16.510Z,98391.95
2023-01-15T13:13:26.556Z,98386.01
2023-01-15T13:16:39.168Z,98381.92
2023-01-15T13:20:10.062Z,98374.36
2023-01-15T13:23:27.232Z,98377.23
2023-01-15T13:27:02.625Z,98373.84
2023-01-15T13:30:31.828Z,98366.48
2023-01-15T13:33:44.435Z,98366.05
2023-01-15T13:36:46.762Z,98365.46
2023-01-15T13:39:49.453Z,98360.79
2023-01-15T13:42:51.545Z,98357.98
2023-01-15T13:45:53.423Z,98358.48
2023-01-15T13:48:55.267Z,98353.11
2023-01-15T13:51:57.047Z,98350.32
2023-01-15T13:55:02.264Z,98354.41
2023-01-15T13:58:17.177Z,98347.73
2023-01-15T14:01:18.839Z,98344.10
2023-01-15T14:04:33.915Z,98344.76
2023-01-15T14:07:37.505Z,98343.30
2023-01-15T14:10:39.102Z,98333.64
2023-01-15T14:13:57.044Z,98332.65
2023-01-15T14:17:04.459Z,98333.91
2023-01-15T14:20:19.781Z,98338.80
2023-01-15T14:23:33.326Z,98340.34
2023-01-15T14:26:47.264Z,98343.58
2023-01-15T14:29:54.789Z,98340.50
2023-01-15T14:33:00.758Z,98348.66
2023-01-15T14:36:18.171Z,98340.79
2023-01-15T14:39:31.179Z,98331.90
2023-01-15T14:42:40.448Z,98325.25
2023-01-15T14:45:43.776Z,98321.41
2023-01-15T14:48:45.599Z,98320.75
2023-01-15T14:51:49.649Z,98322.71
2023-01-15T14:54:52.124Z,98313.64
2023-01-15T14:58:00.894Z,98313.83
2023-01-15T15:01:14.494Z,98315.57
2023-01-15T15:04:22.412Z,98312.70
2023-01-15T15:07:26.962Z,98305.86
2023-01-15T15:10:36.247Z,98304.73
2023-01-15T15:13:39.512Z,98302.02
2023-01-15T15:16:45.351Z,98302.22
2023-01-15T15:19:51.486Z,98296.57
2023-01-15T15:22:56.725Z,98293.12
2023-01-15T15:26:01.090Z,98298.90
2023-01-15T15:29:11.770Z,98295.58
2023-01-15T15:32:17.702Z,98302.27
2023-01-15T15:35:29.822Z,98293.46
2023-01-15T15:38:31.421Z,98293.80
2023-01-15T15:41:35.097Z,98294.78
2023-01-15T15:44:42.497Z,98297.23
2023-01-15T15:47:44.753Z,98295.96
2023-01-15T15:50:47.886Z,98294.67
2023-01-15T15:53:49.480Z,98293.70
2023-01-15T15:56:53.650Z,98297.68
2023-01-15T15:59:55.543Z,98299.71
2023-01-15T16:02:58.002Z,98295.35
2023-01-15T16:06:02.098Z,98298.05
2023-01-15T16:09:09.362Z,98301.58
2023-01-15T16:12:12.993Z,98299.73
2023-01-15T16:15:17.343Z,98290.96
2023-01-15T16:18:23.919Z,98284.82
2023-01-15T16:21:32.453Z,98284.35
2023-01-15T16:24:34.150Z,98284.42
2023-01-15T16:27:35.802Z,98287.92
2023-01-15T16:30:37.465Z,98291.19
2023-01-15T16:33:39.542Z,98291.52
2023-01-15T16:36:42.707Z,98290.09
2023-01-15T16:39:45.636Z,98290.21
2023-01-15T16:42:47.188Z,98294.25
2023-01-15T16:46:06.170Z,98293.20
2023-01-15T16:49:31.518Z,98299.05
2023-01-15T16:52:57.855Z,98301.98
2023-01-15T16:55:59.691Z,98297.06
2023-01-15T16:59:01.594Z,98293.94
2023-01-15T17:02:15.534Z,98301.80
2023-01-15T17:05:22.269Z,98307.83
2023-01-15T17:08:36.381Z,98307.61
2023-01-15T17:11:37.985Z,98316.02
2023-01-15T17:14:39.456Z,98316.70
2023-01-15T17:17:42.316Z,98324.30
2023-01-15T17:20:43.992Z,98333.06
2023-01-15T17:23:45.744Z,98341.96
2023-01-15T17:26:47.333Z,98349.34
2023-01-15T17:29:49.252Z,98355.54
2023-01-15T17:32:50.790Z,98363.77
2023-01-15T17:35:52.365Z,98368.39
2023-01-15T17:38:54.645Z,98379.77
2023-01-15T17:41:56.916Z,98393.41
2023-01-15T17:44:58.627Z,98406.90
2023-01-15T17:48:00.466Z,98430.88
2023-01-15T17:51:07.195Z,98446.06
2023-01-15T17:54:08.816Z,98456.14
2023-01-15T17:57:10.346Z,98470.95
2023-01-15T18:00:12.475Z,98477.90
2023-01-15T18:03:18.487Z,98492.73
2023-01-15T18:06:21.481Z,98504.33
2023-01-15T18:09:23.557Z,98509.56
2023-01-15T18:12:25.204Z,98515.66
2023-01-15T18:15:26.723Z,98518.35
2023-01-15T18:18:28.347Z,98524.76
2023-01-15T18:21:29.870Z,98530.23
2023-01-15T18:24:31.597Z,98531.33
2023-01-15T18:27:33.144Z,98538.02
2023-01-15T18:30:34.819Z,98541.60
2023-01-15T18:33:36.334Z,98546.23
2023-01-15T18:36:37.952Z,98546.47
2023-01-15T18:39:39.658Z,98559.56
2023-01-15T18:42:41.548Z,98562.87
2023-01-15T18:45:46.038Z,98566.56
2023-01-15T18:48:47.594Z,98570.27
2023-01-15T18:51:49.179Z,98579.89
2023-01-15T18:54:50.789Z,98581.06
2023-01-15T18:57:53.671Z,98580.02
2023-01-15T19:00:55.518Z,98585.21
2023-01-15T19:03:58.787Z,98584.92
2023-01-15T19:07:00.934Z,98584.14
2023-01-15T19:10:02.608Z,98588.07
2023-01-15T19:13:04.513Z,98588.84
2023-01-15T19:16:06.719Z,98583.48
2023-01-15T19:19:08.437Z,98583.80
2023-01-15T19:22:11.292Z,98583.69
2023-01-15T19:25:12.993Z,98588.54
2023-01-15T19:28:19.268Z,98593.95
2023-01-15T19:31:20.935Z,98595.73
2023-01-15T19:34:33.536Z,98598.59
2023-01-15T19:37:35.435Z,98600.25
2023-01-15T19:40:37.014Z,98604.23
2023-01-15T19:43:38.765Z,98605.17
2023-01-15T19:46:40.296Z,98607.92
2023-01-15T19:49:42.278Z,98613.16
2023-01-15T19:52:44.023Z,98618.80
2023-01-15T19:55:45.489Z,98616.02
2023-01-15T19:58:47.124Z,98621.40
2023-01-15T20:01:48.603Z,98616.08
2023-01-15T20:04:50.826Z,98614.89
2023-01-15T20:07:52.459Z,98612.51
2023-01-15T20:10:54.040Z,98616.91
2023-01-15T20:13:58.486Z,98620.02
2023-01-15T20:17:00.112Z,98618.69
2023-01-15T20:20:01.615Z,98626.01
2023-01-15T20:23:03.458Z,98626.71
2023-01-15T20:26:07.656Z,98628.11
2023-01-15T20:29:09.406Z,98637.70
2023-01-15T20:32:11.030Z,98640.10
2023-01-15T20:35:15.318Z,98641.75
2023-01-15T20:38:16.912Z,98643.46
2023-01-15T20:41:18.591Z,98644.73
2023-01-15T20:44:20.107Z,98648.40
2023-01-15T20:47:27.130Z,98645.21
2023-01-15T20:50:30.606Z,98645.13
2023-01-15T20:53:33.997Z,98640.56
2023-01-15T20:56:35.627Z,98638.90
2023-01-15T20:59:37.313Z,98636.78
2023-01-15T21:02:38.828Z,98640.37
2023-01-15T21:05:40.512Z,98636.80
2023-01-15T21:08:42.725Z,98631.83
2023-01-15T21:11:44.282Z,98629.30
2023-01-15T21:14:46.109Z,98626.06
2023-01-15T21:17:47.852Z,98627.22
2023-01-15T21:20:51.293Z,98628.02
2023-01-15T21:23:53.245Z,98627.52
2023-01-15T21:26:55.150Z,98624.90
2023-01-15T21:29:56.771Z,98622.62
2023-01-15T21:32:58.411Z,98621.31
2023-01-15T21:36:08.437Z,98621.08
2023-01-15T21:39:14.696Z,98619.75
2023-01-15T21:42:18.448Z,98624.17
2023-01-15T21:45:20.227Z,98624.39
2023-01-15T21:48:21.868Z,98627.73
2023-01-15T21:51:25.272Z,98632.12
2023-01-15T21:54:27.181Z,98634.66
2023-01-15T21:57:29.968Z,98630.48
2023-01-15T22:00:31.566Z,98629.95
2023-01-15T22:03:36.312Z,98632.59
2023-01-15T22:06:38.173Z,98625.89
2023-01-15T22:09:39.801Z,98627.17
2023-01-15T22:12:41.303Z,98624.03
2023-01-15T22:15:43.053Z,98626.31
2023-01-15T22:18:44.792Z,98622.98
2023-01-15T22:21:55.330Z,98623.25
2023-01-15T22:24:56.920Z,98626.23
2023-01-15T22:27:58.509Z,98631.12
2023-01-15T22:31:00.186Z,98627.64
2023-01-15T22:34:01.700Z,98626.38
2023-01-15T22:37:03.345Z,98620.45
2023-01-15T22:40:05.670Z,98621.86
2023-01-15T22:43:07.206Z,98625.65
2023-01-15T22:46:13.010Z,98619.08
2023-01-15T22:49:14.577Z,98616.26
2023-01-15T22:52:16.278Z,98615.65
2023-01-15T22:55:17.863Z,98612.17
2023-01-15T22:58:19.355Z,98608.46
2023-01-15T23:01:22.224Z,98603.86
2023-01-15T23:04:24.758Z,98599.95
2023-01-15T23:07:27.647Z,98599.70
2023-01-15T23:10:29.165Z,98595.85
2023-01-15T23:13:31.419Z,98596.73
2023-01-15T23:16:32.999Z,98598.34
2023-01-15T23:19:34.715Z,98604.55
2023-01-15T23:22:36.537Z,98604.57
2023-01-15T23:25:38.117Z,98593.52
2023-01-15T23:28:40.154Z,98594.05
2023-01-15T23:31:41.846Z,98593.40
2023-01-15T23:34:43.382Z,98596.20
2023-01-15T23:37:45.100Z,98593.55
2023-01-15T23:40:46.738Z,98586.24
2023-01-15T23:43:48.327Z,98591.46
2023-01-15T23:46:49.980Z,98598.71
2023-01-15T23:49:51.568Z,98603.07
2023-01-15T23:52:53.134Z,98594.08
2023-01-15T23:55:57.468Z,98592.21
2023-01-15T23:58:59.949Z,98591.92
